createdAt,value
2023-03-12T00:00:49.369Z,51.87
2023-03-12T00:03:52.003Z,51.52
2023-03-12T00:06:54.403Z,52.26
2023-03-12T00:09:59.083Z,51.43
2023-03-12T00:13:01.711Z,51.36
2023-03-12T00:16:09.604Z,51.80
2023-03-12T00:19:15.337Z,51.53
2023-03-12T00:22:23.091Z,52.01
2023-03-12T00:25:27.625Z,51.70
2023-03-12T00:28:32.644Z,51.68
2023-03-12T00:31:36.477Z,52.00
2023-03-12T00:34:41.069Z,51.76
2023-03-12T00:37:45.657Z,50.87
2023-03-12T00:40:50.623Z,50.86
2023-03-12T00:43:53.304Z,50.54
2023-03-12T00:46:55.575Z,51.17
2023-03-12T00:49:57.835Z,49.47
2023-03-12T00:53:00.320Z,50.96
2023-03-12T00:56:04.301Z,50.08
2023-03-12T00:59:08.844Z,49.91
2023-03-12T01:02:11.137Z,50.17
2023-03-12T01:05:14.778Z,49.59
2023-03-12T01:08:17.094Z,49.42
2023-03-12T01:11:23.306Z,49.45
2023-03-12T01:14:25.646Z,49.59
2023-03-12T01:17:28.490Z,49.27
2023-03-12T01:20:31.142Z,49.50
2023-03-12T01:23:33.425Z,48.71
2023-03-12T01:26:40.404Z,49.13
2023-03-12T01:29:45.430Z,49.02
2023-03-12T01:32:47.938Z,48.46
2023-03-12T01:35:50.541Z,48.80
2023-03-12T01:38:55.192Z,47.41
2023-03-12T01:41:57.867Z,48.58
2023-03-12T01:45:04.479Z,47.90
2023-03-12T01:48:08.787Z,46.95
2023-03-12T01:51:16.038Z,48.08
2023-03-12T01:54:26.572Z,48.16
2023-03-12T01:57:39.749Z,47.67
2023-03-12T02:00:45.722Z,47.89
2023-03-12T02:03:52.472Z,48.53
2023-03-12T02:07:10.361Z,48.33
2023-03-12T02:10:13.012Z,47.83
2023-03-12T02:13:16.406Z,48.23
2023-03-12T02:16:21.418Z,47.60
2023-03-12T02:19:42.417Z,48.14
2023-03-12T02:22:51.269Z,48.23
2023-03-12T02:25:56.930Z,48.58
2023-03-12T02:29:00.597Z,48.64
2023-03-12T02:32:04.535Z,48.82
2023-03-12T02:35:07.220Z,49.61
2023-03-12T02:38:40.672Z,49.36
2023-03-12T02:41:46.824Z,49.28
2023-03-12T02:44:52.379Z,50.27
2023-03-12T02:47:54.619Z,49.98
2023-03-12T02:50:57.238Z,50.53
2023-03-12T02:54:02.027Z,50.32
2023-03-12T02:57:04.430Z,51.02
2023-03-12T03:00:18.819Z,51.50
2023-03-12T03:03:30.254Z,51.62
2023-03-12T03:06:34.322Z,51.45
2023-03-12T03:09:36.750Z,51.45
2023-03-12T03:12:41.356Z,51.85
2023-03-12T03:15:43.890Z,52.16
2023-03-12T03:18:46.333Z,53.02
2023-03-12T03:21:52.153Z,52.26
2023-03-12T03:24:56.827Z,52.76
2023-03-12T03:28:01.830Z,53.12
2023-03-12T03:31:07.875Z,53.78
2023-03-12T03:34:12.671Z,53.44
2023-03-12T03:37:17.199Z,53.92
2023-03-12T03:40:20.877Z,53.62
2023-03-12T03:43:25.876Z,54.48
2023-03-12T03:46:31.181Z,53.96
2023-03-12T03:49:44.426Z,54.11
2023-03-12T03:52:49.696Z,54.10
2023-03-12T03:55:51.933Z,53.97
2023-03-12T03:58:56.644Z,55.27
2023-03-12T04:01:59.528Z,55.14
2023-03-12T04:05:04.879Z,55.96
2023-03-12T04:08:09.617Z,55.14
2023-03-12T04:11:14.984Z,55.52
2023-03-12T04:14:17.766Z,56.01
2023-03-12T04:17:24.169Z,56.10
2023-03-12T04:20:26.598Z,56.95
2023-03-12T04:23:31.387Z,56.35
2023-03-12T04:26:33.832Z,55.64
2023-03-12T04:29:39.226Z,55.59
2023-03-12T04:32:41.713Z,55.27
2023-03-12T04:35:51.797Z,55.75
2023-03-12T04:38:56.390Z,55.68
2023-03-12T04:42:03.200Z,55.33
2023-03-12T04:45:10.916Z,56.04
2023-03-12T04:48:16.093Z,55.49
2023-03-12T04:51:18.936Z,56.56
2023-03-12T04:54:26.093Z,56.62
2023-03-12T04:57:29.498Z,57.26
2023-03-12T05:00:34.282Z,57.02
2023-03-12T05:03:36.881Z,56.63
2023-03-12T05:06:39.189Z,56.76
2023-03-12T05:09:44.370Z,57.22
2023-03-12T05:12:52.566Z,58.32
2023-03-12T05:15:55.872Z,58.75
2023-03-12T05:19:02.396Z,59.04
2023-03-12T05:22:06.159Z,59.51
2023-03-12T05:25:13.803Z,58.86
2023-03-12T05:28:16.597Z,59.13
2023-03-12T05:31:24.015Z,59.28
2023-03-12T05:34:26.378Z,58.74
2023-03-12T05:37:28.889Z,57.28
2023-03-12T05:40:31.233Z,56.08
2023-03-12T05:43:34.543Z,56.42
2023-03-12T05:46:37.551Z,56.33
2023-03-12T05:49:44.268Z,56.42
2023-03-12T05:52:46.798Z,56.59
2023-03-12T05:55:49.230Z,55.10
2023-03-12T05:58:52.868Z,53.98
2023-03-12T06:01:57.105Z,53.60
2023-03-12T06:04:59.635Z,54.07
2023-03-12T06:08:03.172Z,52.18
2023-03-12T06:11:05.484Z,52.09
2023-03-12T06:14:13.482Z,52.16
2023-03-12T06:17:16.043Z,50.96
2023-03-12T06:20:18.729Z,50.77
2023-03-12T06:23:21.629Z,49.96
2023-03-12T06:26:24.798Z,48.55
2023-03-12T06:29:27.103Z,48.93
2023-03-12T06:32:31.705Z,48.16
2023-03-12T06:35:34.910Z,46.76
2023-03-12T06:38:37.359Z,45.88
2023-03-12T06:41:40.697Z,45.45
2023-03-12T06:44:42.993Z,45.11
2023-03-12T06:47:50.227Z,44.94
2023-03-12T06:50:55.482Z,45.22
2023-03-12T06:54:01.161Z,43.95
2023-03-12T06:57:03.473Z,44.03
2023-03-12T07:00:06.411Z,43.19
2023-03-12T07:03:08.797Z,42.80
2023-03-12T07:06:20.419Z,42.42
2023-03-12T07:09:25.340Z,40.68
2023-03-12T07:12:27.586Z,39.87
2023-03-12T07:15:32.169Z,38.42
2023-03-12T07:18:34.477Z,38.35
2023-03-12T07:21:39.726Z,37.77
2023-03-12T07:24:42.054Z,37.05
2023-03-12T07:27:48.397Z,37.57
2023-03-12T07:30:53.253Z,37.78
2023-03-12T07:33:57.117Z,37.84
2023-03-12T07:37:00.127Z,37.29
2023-03-12T07:40:05.676Z,36.56
2023-03-12T07:43:12.645Z,36.35
2023-03-12T07:46:16.487Z,35.42
2023-03-12T07:49:26.587Z,34.04
2023-03-12T07:52:28.827Z,32.17
2023-03-12T07:55:32.984Z,31.17
2023-03-12T07:58:36.599Z,31.70
2023-03-12T08:01:39.051Z,29.42
2023-03-12T08:04:43.483Z,29.82
2023-03-12T08:07:46.550Z,30.95
2023-03-12T08:10:48.886Z,30.73
2023-03-12T08:13:51.154Z,29.84
2023-03-12T08:16:53.425Z,30.23
2023-03-12T08:19:55.767Z,29.49
2023-03-12T08:23:03.702Z,28.67
2023-03-12T08:26:08.668Z,28.00
2023-03-12T08:29:11.501Z,28.51
2023-03-12T08:32:14.172Z,27.41
2023-03-12T08:35:19.177Z,27.65
2023-03-12T08:38:22.291Z,27.05
2023-03-12T08:41:27.296Z,26.46
2023-03-12T08:44:29.859Z,25.30
2023-03-12T08:47:32.121Z,24.57
2023-03-12T08:50:34.448Z,26.16
2023-03-12T08:53:42.478Z,27.19
2023-03-12T08:56:46.601Z,26.46
2023-03-12T08:59:53.654Z,27.07
2023-03-12T09:02:58.352Z,25.27
2023-03-12T09:06:13.577Z,24.42
2023-03-12T09:09:18.012Z,24.58
2023-03-12T09:12:24.243Z,26.31
2023-03-12T09:15:26.981Z,27.29
2023-03-12T09:18:30.148Z,26.79
2023-03-12T09:21:32.410Z,25.46
2023-03-12T09:24:34.932Z,25.55
2023-03-12T09:27:39.386Z,26.30
2023-03-12T09:30:42.403Z,26.32
2023-03-12T09:33:45.104Z,24.99
2023-03-12T09:36:52.210Z,24.66
2023-03-12T09:39:54.503Z,25.16
2023-03-12T09:43:07.406Z,23.47
2023-03-12T09:46:15.671Z,22.33
2023-03-12T09:49:32.568Z,23.21
2023-03-12T09:52:50.474Z,24.03
2023-03-12T09:55:55.641Z,24.25
2023-03-12T09:58:58.126Z,23.42
2023-03-12T10:02:15.671Z,22.08
2023-03-12T10:05:30.256Z,21.64
2023-03-12T10:08:54.485Z,21.65
2023-03-12T10:12:14.236Z,20.84
2023-03-12T10:15:37.627Z,21.93
2023-03-12T10:18:52.867Z,21.59
2023-03-12T10:22:04.116Z,20.02
2023-03-12T10:25:18.574Z,20.61
2023-03-12T10:28:40.761Z,22.69
2023-03-12T10:32:01.941Z,21.44
2023-03-12T10:35:19.359Z,20.28
2023-03-12T10:38:29.791Z,22.29
2023-03-12T10:41:36.622Z,22.46
2023-03-12T10:44:41.654Z,22.68
2023-03-12T10:47:50.326Z,25.28
2023-03-12T10:51:05.591Z,25.85
2023-03-12T10:54:27.489Z,26.43
2023-03-12T10:57:42.012Z,26.70
2023-03-12T11:00:56.805Z,27.99
2023-03-12T11:04:09.777Z,26.44
2023-03-12T11:07:15.149Z,27.36
2023-03-12T11:10:22.336Z,28.38
2023-03-12T11:13:35.545Z,27.96
2023-03-12T11:16:40.724Z,27.78
2023-03-12T11:19:45.133Z,27.97
2023-03-12T11:22:49.521Z,26.62
2023-03-12T11:26:11.387Z,26.13
2023-03-12T11:29:23.021Z,25.13
2023-03-12T11:32:31.163Z,23.89
2023-03-12T11:35:56.497Z,23.05
2023-03-12T11:39:37.594Z,23.47
2023-03-12T11:42:54.764Z,22.62
2023-03-12T11:46:30.031Z,23.01
2023-03-12T11:49:56.328Z,21.74
2023-03-12T11:53:04.744Z,21.27
2023-03-12T11:56:37.903Z,20.16
2023-03-12T12:00:14.086Z,21.04
2023-03-12T12:03:35.046Z,22.09
2023-03-12T12:06:40.352Z,21.79
2023-03-12T12:09:57.866Z,21.67
2023-03-12T12:13:16.655Z,21.01
2023-03-12T12:16:54.187Z,21.02
2023-03-12T12:20:11.707Z,20.42
2023-03-12T12:23:39.516Z,21.69
2023-03-12T12:27:21.244Z,21.33
2023-03-12T12:30:28.297Z,21.33
2023-03-12T12:33:54.910Z,21.99
2023-03-12T12:37:21.964Z,21.79
2023-03-12T12:40:52.058Z,22.19
2023-03-12T12:44:01.079Z,21.63
2023-03-12T12:47:06.869Z,21.96
2023-03-12T12:50:22.023Z,21.76
2023-03-12T12:53:31.097Z,22.07
2023-03-12T12:57:25.958Z,20.93
2023-03-12T13:00:46.894Z,21.17
2023-03-12T13:03:50.184Z,21.79
2023-03-12T13:06:55.154Z,21.15
2023-03-12T13:10:05.961Z,21.37
2023-03-12T13:13:20.064Z,21.14
2023-03-12T13:16:30.216Z,21.63
2023-03-12T13:19:44.893Z,21.25
2023-03-12T13:23:01.061Z,20.70
2023-03-12T13:26:48.109Z,21.17
2023-03-12T13:29:57.235Z,20.62
2023-03-12T13:33:06.596Z,20.36
2023-03-12T13:36:28.335Z,21.22
2023-03-12T13:39:39.407Z,19.40
2023-03-12T13:42:43.992Z,19.58
2023-03-12T13:46:23.041Z,20.74
2023-03-12T13:49:43.136Z,20.66
2023-03-12T13:53:15.919Z,21.44
2023-03-12T13:56:21.150Z,21.69
2023-03-12T13:59:26.041Z,21.81
2023-03-12T14:02:33.891Z,22.24
2023-03-12T14:05:58.744Z,21.25
2023-03-12T14:09:06.991Z,21.09
2023-03-12T14:12:27.650Z,20.89
2023-03-12T14:15:54.146Z,21.36
2023-03-12T14:19:02.071Z,21.09
2023-03-12T14:22:11.508Z,20.94
2023-03-12T14:25:33.903Z,21.15
2023-03-12T14:28:41.654Z,20.56
2023-03-12T14:31:45.081Z,20.76
2023-03-12T14:35:19.249Z,20.47
2023-03-12T14:38:30.299Z,19.80
2023-03-12T14:41:44.178Z,20.49
2023-03-12T14:45:01.647Z,20.00
2023-03-12T14:48:06.120Z,19.37
2023-03-12T14:51:10.595Z,18.60
2023-03-12T14:54:23.746Z,19.28
2023-03-12T14:57:27.206Z,19.44
2023-03-12T15:00:33.550Z,19.30
2023-03-12T15:03:47.067Z,20.00
2023-03-12T15:07:12.746Z,19.84
2023-03-12T15:10:23.374Z,20.73
2023-03-12T15:13:29.961Z,21.08
2023-03-12T15:16:33.311Z,21.29
2023-03-12T15:19:43.270Z,21.54
2023-03-12T15:22:45.836Z,21.42
2023-03-12T15:26:08.228Z,21.88
2023-03-12T15:29:28.588Z,22.06
2023-03-12T15:32:31.985Z,22.23
2023-03-12T15:35:43.039Z,22.45
2023-03-12T15:38:48.649Z,22.29
2023-03-12T15:41:51.497Z,22.68
2023-03-12T15:44:59.152Z,22.02
2023-03-12T15:48:01.728Z,22.84
2023-03-12T15:51:16.407Z,22.95
2023-03-12T15:54:18.558Z,23.14
2023-03-12T15:57:25.878Z,22.58
2023-03-12T16:00:41.399Z,22.70
2023-03-12T16:03:46.140Z,22.28
2023-03-12T16:06:50.188Z,21.95
2023-03-12T16:09:52.482Z,22.10
2023-03-12T16:13:05.165Z,21.70
2023-03-12T16:16:12.155Z,21.94
2023-03-12T16:19:21.811Z,22.13
2023-03-12T16:22:26.875Z,22.67
2023-03-12T16:25:33.091Z,22.82
2023-03-12T16:28:36.403Z,22.84
2023-03-12T16:31:40.922Z,23.75
2023-03-12T16:34:44.888Z,23.18
2023-03-12T16:37:47.174Z,23.67
2023-03-12T16:40:51.190Z,23.27
2023-03-12T16:43:58.868Z,23.14
2023-03-12T16:47:03.963Z,23.50
2023-03-12T16:50:19.912Z,23.28
2023-03-12T16:53:25.359Z,23.50
2023-03-12T16:56:27.702Z,23.77
2023-03-12T16:59:37.992Z,24.15
2023-03-12T17:02:40.399Z,24.31
2023-03-12T17:05:44.956Z,24.35
2023-03-12T17:08:49.542Z,24.40
2023-03-12T17:11:52.264Z,24.50
2023-03-12T17:14:57.417Z,24.70
2023-03-12T17:18:03.480Z,25.10
2023-03-12T17:21:05.724Z,25.30
2023-03-12T17:24:08.108Z,25.22
2023-03-12T17:27:10.805Z,25.52
2023-03-12T17:30:13.447Z,25.65
2023-03-12T17:33:17.358Z,25.93
2023-03-12T17:36:21.939Z,25.99
2023-03-12T17:39:27.263Z,26.49
2023-03-12T17:42:31.421Z,26.82
2023-03-12T17:45:36.484Z,26.37
2023-03-12T17:48:38.737Z,27.50
2023-03-12T17:51:45.747Z,26.86
2023-03-12T17:54:48.052Z,27.79
2023-03-12T17:57:50.628Z,27.43
2023-03-12T18:00:52.925Z,27.99
2023-03-12T18:03:55.728Z,27.87
2023-03-12T18:07:00.674Z,28.62
2023-03-12T18:10:05.748Z,28.34
2023-03-12T18:13:11.412Z,29.25
2023-03-12T18:16:16.837Z,28.99
2023-03-12T18:19:19.362Z,29.48
2023-03-12T18:22:26.377Z,30.15
2023-03-12T18:25:30.933Z,30.13
2023-03-12T18:28:33.270Z,30.17
2023-03-12T18:31:36.098Z,30.37
2023-03-12T18:34:42.428Z,30.18
2023-03-12T18:37:47.630Z,30.90
2023-03-12T18:40:52.208Z,30.87
2023-03-12T18:43:54.591Z,31.35
2023-03-12T18:46:57.064Z,30.98
2023-03-12T18:50:02.292Z,30.40
2023-03-12T18:53:09.199Z,30.43
2023-03-12T18:56:14.645Z,30.70
2023-03-12T18:59:17.361Z,30.78
2023-03-12T19:02:20.762Z,31.42
2023-03-12T19:05:23.179Z,31.05
2023-03-12T19:08:25.412Z,31.22
2023-03-12T19:11:28.304Z,31.58
2023-03-12T19:14:35.393Z,32.37
2023-03-12T19:17:45.060Z,32.19
2023-03-12T19:20:47.858Z,32.34
2023-03-12T19:23:53.556Z,31.67
2023-03-12T19:26:56.337Z,31.56
2023-03-12T19:30:06.432Z,31.29
2023-03-12T19:33:09.192Z,31.01
2023-03-12T19:36:11.912Z,31.36
2023-03-12T19:39:22.078Z,32.15
2023-03-12T19:42:24.426Z,32.33
2023-03-12T19:45:26.867Z,31.97
2023-03-12T19:48:31.384Z,32.59
2023-03-12T19:51:33.988Z,33.33
2023-03-12T19:54:36.353Z,33.93
2023-03-12T19:57:38.766Z,33.96
2023-03-12T20:00:41.510Z,33.87
2023-03-12T20:03:44.090Z,34.18
2023-03-12T20:06:47.341Z,34.76
2023-03-12T20:09:49.879Z,34.73
2023-03-12T20:12:52.431Z,35.65
2023-03-12T20:15:57.231Z,35.92
2023-03-12T20:18:59.600Z,36.12
2023-03-12T20:22:02.450Z,36.28
2023-03-12T20:25:05.949Z,36.39
2023-03-12T20:28:09.211Z,36.63
2023-03-12T20:31:16.152Z,36.80
2023-03-12T20:34:23.111Z,36.98
2023-03-12T20:37:25.347Z,36.79
2023-03-12T20:40:30.421Z,37.15
2023-03-12T20:43:32.766Z,37.01
2023-03-12T20:46:37.299Z,37.15
2023-03-12T20:49:39.598Z,37.43
2023-03-12T20:52:46.774Z,37.43
2023-03-12T20:55:49.013Z,37.71
2023-03-12T20:58:53.912Z,38.25
2023-03-12T21:01:56.154Z,37.09
2023-03-12T21:04:58.376Z,37.62
2023-03-12T21:08:00.706Z,37.51
2023-03-12T21:11:06.658Z,37.05
2023-03-12T21:14:08.990Z,36.92
2023-03-12T21:17:13.724Z,37.32
2023-03-12T21:20:19.046Z,37.78
2023-03-12T21:23:21.337Z,38.34
2023-03-12T21:26:23.739Z,38.24
2023-03-12T21:29:28.437Z,38.34
2023-03-12T21:32:38.593Z,38.50
2023-03-12T21:35:46.951Z,37.84
2023-03-12T21:38:52.375Z,38.36
2023-03-12T21:41:54.711Z,37.24
2023-03-12T21:45:02.230Z,37.50
2023-03-12T21:48:08.212Z,37.82
2023-03-12T21:51:12.155Z,37.82
2023-03-12T21:54:19.483Z,38.03
2023-03-12T21:57:21.742Z,38.26
2023-03-12T22:00:28.756Z,38.39
2023-03-12T22:03:31.039Z,38.65
2023-03-12T22:06:38.084Z,39.35
2023-03-12T22:09:40.355Z,39.91
2023-03-12T22:12:43.703Z,39.35
2023-03-12T22:15:59.899Z,39.16
2023-03-12T22:19:04.613Z,39.27
2023-03-12T22:22:09.640Z,38.91
2023-03-12T22:25:12.053Z,38.92
2023-03-12T22:28:15.421Z,39.65
2023-03-12T22:31:19.762Z,39.29
2023-03-12T22:34:29.623Z,40.05
2023-03-12T22:37:34.274Z,40.29
2023-03-12T22:40:38.727Z,41.04
2023-03-12T22:43:40.990Z,40.94
2023-03-12T22:46:43.345Z,41.14
2023-03-12T22:49:49.012Z,41.05
2023-03-12T22:52:51.363Z,41.65
2023-03-12T22:56:04.810Z,41.19
2023-03-12T22:59:07.118Z,41.18
2023-03-12T23:02:11.669Z,40.92
2023-03-12T23:05:13.921Z,41.09
2023-03-12T23:08:20.934Z,41.17
2023-03-12T23:11:25.487Z,41.34
2023-03-12T23:14:27.857Z,41.72
2023-03-12T23:17:34.724Z,41.79
2023-03-12T23:20:36.972Z,41.03
2023-03-12T23:23:42.227Z,41.57
2023-03-12T23:26:44.922Z,41.53
2023-03-12T23:29:47.720Z,42.03
2023-03-12T23:32:49.959Z,42.48
2023-03-12T23:35:59.356Z,42.14
2023-03-12T23:39:03.535Z,42.32
2023-03-12T23:42:10.517Z,42.31
2023-03-12T23:45:17.546Z,42.51
2023-03-12T23:48:22.802Z,42.20
2023-03-12T23:51:30.254Z,43.30
2023-03-12T23:54:32.593Z,42.39
2023-03-12T23:57:34.813Z,43.07
